Kezdőlap
METAR-TAF:

METAR-TAF

Repülőterek :

Krabi, Thaiföld

földrajzi szélesség: 08-06-03N, földrajzi hosszúság: 098-59-05E, magasság: 25 m

Jelenlegi meteorológiai megfigyelések

A jelentés 1 órával és 8 perccel ezelõtt készült, 20:00 UTC
Különbözõ irányokból fújó szél 1 kt
Hőmérséklet 26°C
Páratartalom 94%
Légköri nyomás 1008 hPa
Látótávolság 10 km, vagy több
Kevés felhő 3000 lábon

METAR: VTSG 152000Z VRB01KT 9999 FEW030 26/25 Q1008 NOSIG

Idő: 04:08 (21:08 UTC)

Előrejelzés

A jelentés 4 órával és 8 perccel ezelõtt készült, 17:00 UTC
Az előrejelzés 15-én 18 óra UTC és 16-én 18 óra UTC között érvényes
Nyugat-délnyugati szél 5 kt
Látótávolság 10 km, vagy több
Kevés felhő 3000 lábon

TAF: VTSG 151700Z 1518/1618 24005KT 9999 FEW030

Meteorológiai megfigyelések és előrejelzések több, mint 4000 repülőtéren (METAR és TAF jelentéseket).

A térképen piros és sárga pontok jelzik az elérhető meteorológiai állomásokat.

Mozgassa az egeret a pont fölött, hogy megjelenjen az állomás neve.

Azután kattintson az időjárási megfigyelések és előrejelzések megtekintéséhez.

A térkép megváltoztatása: kattintson a fekete keresztel jelölt zöld gombra ráközelítéshez, a vonallal jelölt zöld gombra távolításhoz, vagy a zöld nyilakra a szomszédos térképek eléréséhez.


METAR-TAF: